sensor_id;sensor_type;location;lat;lon;timestamp;P1;P2;P0
30713;PMS7003;17465;47.934;33.430;2023-05-19T00:02:14;36.50;33.25;21.25
30713;PMS7003;17465;47.934;33.430;2023-05-19T00:04:45;35.75;32.00;21.25
30713;PMS7003;17465;47.934;33.430;2023-05-19T00:07:16;31.00;29.50;18.25
30713;PMS7003;17465;47.934;33.430;2023-05-19T00:09:47;30.25;29.00;20.75
30713;PMS7003;17465;47.934;33.430;2023-05-19T00:12:17;34.25;32.00;21.25
30713;PMS7003;17465;47.934;33.430;2023-05-19T00:14:51;36.00;32.00;19.50
30713;PMS7003;17465;47.934;33.430;2023-05-19T00:17:22;34.75;31.25;21.00
30713;PMS7003;17465;47.934;33.430;2023-05-19T00:19:52;35.50;31.50;20.25
30713;PMS7003;17465;47.934;33.430;2023-05-19T00:22:23;32.25;31.25;20.00
30713;PMS7003;17465;47.934;33.430;2023-05-19T00:24:53;32.25;30.00;19.25
30713;PMS7003;17465;47.934;33.430;2023-05-19T00:27:23;31.75;30.50;20.25
30713;PMS7003;17465;47.934;33.430;2023-05-19T00:29:54;30.25;29.00;18.75
30713;PMS7003;17465;47.934;33.430;2023-05-19T00:32:24;35.50;32.50;20.00
30713;PMS7003;17465;47.934;33.430;2023-05-19T00:34:54;30.75;30.00;20.00
30713;PMS7003;17465;47.934;33.430;2023-05-19T00:37:25;30.00;29.00;19.50
30713;PMS7003;17465;47.934;33.430;2023-05-19T00:39:55;26.25;22.00;16.00
30713;PMS7003;17465;47.934;33.430;2023-05-19T00:42:26;28.00;27.75;18.00
30713;PMS7003;17465;47.934;33.430;2023-05-19T00:44:56;30.75;27.75;17.75
30713;PMS7003;17465;47.934;33.430;2023-05-19T00:47:27;31.25;29.75;17.75
30713;PMS7003;17465;47.934;33.430;2023-05-19T00:49:57;32.50;30.75;19.75
30713;PMS7003;17465;47.934;33.430;2023-05-19T00:52:28;28.75;28.25;18.00
30713;PMS7003;17465;47.934;33.430;2023-05-19T00:54:59;28.25;27.75;17.25
30713;PMS7003;17465;47.934;33.430;2023-05-19T00:57:29;32.00;30.00;20.00
30713;PMS7003;17465;47.934;33.430;2023-05-19T01:00:00;30.00;29.75;20.25
30713;PMS7003;17465;47.934;33.430;2023-05-19T01:02:31;28.50;28.25;19.00
30713;PMS7003;17465;47.934;33.430;2023-05-19T01:05:03;32.00;31.25;19.75
30713;PMS7003;17465;47.934;33.430;2023-05-19T01:07:35;33.75;31.75;20.00
30713;PMS7003;17465;47.934;33.430;2023-05-19T01:10:06;32.25;30.00;19.25
30713;PMS7003;17465;47.934;33.430;2023-05-19T01:12:38;30.25;29.00;19.00
30713;PMS7003;17465;47.934;33.430;2023-05-19T01:15:10;30.50;29.25;19.00
30713;PMS7003;17465;47.934;33.430;2023-05-19T01:20:26;26.00;24.25;13.00
30713;PMS7003;17465;47.934;33.430;2023-05-19T01:31:37;27.25;26.25;16.50
30713;PMS7003;17465;47.934;33.430;2023-05-19T01:34:10;34.50;30.25;19.75
30713;PMS7003;17465;47.934;33.430;2023-05-19T01:36:41;28.25;26.75;18.00
30713;PMS7003;17465;47.934;33.430;2023-05-19T01:39:13;27.50;25.75;15.25
30713;PMS7003;17465;47.934;33.430;2023-05-19T01:41:44;33.75;31.50;21.75
30713;PMS7003;17465;47.934;33.430;2023-05-19T01:44:15;29.00;26.50;17.25
30713;PMS7003;17465;47.934;33.430;2023-05-19T01:46:46;33.00;29.75;18.50
30713;PMS7003;17465;47.934;33.430;2023-05-19T01:49:18;31.75;30.00;18.75
30713;PMS7003;17465;47.934;33.430;2023-05-19T01:51:48;30.00;29.50;17.50
30713;PMS7003;17465;47.934;33.430;2023-05-19T01:54:19;32.00;30.75;19.50
30713;PMS7003;17465;47.934;33.430;2023-05-19T01:57:03;35.75;32.00;20.00
30713;PMS7003;17465;47.934;33.430;2023-05-19T02:08:56;36.00;31.75;22.00
30713;PMS7003;17465;47.934;33.430;2023-05-19T02:11:35;34.75;31.00;20.00
30713;PMS7003;17465;47.934;33.430;2023-05-19T02:14:11;38.25;34.00;20.25
30713;PMS7003;17465;47.934;33.430;2023-05-19T02:16:53;32.75;30.50;18.50
30713;PMS7003;17465;47.934;33.430;2023-05-19T02:19:26;31.75;29.75;17.00
30713;PMS7003;17465;47.934;33.430;2023-05-19T02:21:59;33.25;29.75;20.00
30713;PMS7003;17465;47.934;33.430;2023-05-19T02:24:29;33.25;31.00;19.75
30713;PMS7003;17465;47.934;33.430;2023-05-19T02:26:59;33.75;29.00;16.75
30713;PMS7003;17465;47.934;33.430;2023-05-19T02:29:30;31.50;29.50;19.75
30713;PMS7003;17465;47.934;33.430;2023-05-19T02:32:00;33.75;29.50;20.00
30713;PMS7003;17465;47.934;33.430;2023-05-19T02:34:31;35.25;32.25;20.50
30713;PMS7003;17465;47.934;33.430;2023-05-19T02:37:02;34.50;31.50;20.00
30713;PMS7003;17465;47.934;33.430;2023-05-19T02:39:32;34.50;31.00;19.50
30713;PMS7003;17465;47.934;33.430;2023-05-19T02:42:03;35.75;31.25;20.00
30713;PMS7003;17465;47.934;33.430;2023-05-19T02:44:33;25.50;24.25;16.50
30713;PMS7003;17465;47.934;33.430;2023-05-19T02:47:04;33.25;31.25;20.00
30713;PMS7003;17465;47.934;33.430;2023-05-19T02:49:34;33.00;30.00;20.00
30713;PMS7003;17465;47.934;33.430;2023-05-19T02:52:05;29.75;29.50;19.25
30713;PMS7003;17465;47.934;33.430;2023-05-19T02:54:36;28.50;27.00;16.00
30713;PMS7003;17465;47.934;33.430;2023-05-19T02:57:06;27.75;27.00;18.25
30713;PMS7003;17465;47.934;33.430;2023-05-19T02:59:42;31.25;29.50;20.00
30713;PMS7003;17465;47.934;33.430;2023-05-19T03:02:12;29.75;29.75;18.50
30713;PMS7003;17465;47.934;33.430;2023-05-19T03:04:43;26.25;24.75;18.00
30713;PMS7003;17465;47.934;33.430;2023-05-19T03:07:13;29.50;29.25;18.75
30713;PMS7003;17465;47.934;33.430;2023-05-19T03:09:44;29.25;28.25;17.00
30713;PMS7003;17465;47.934;33.430;2023-05-19T03:12:14;27.00;25.50;19.00
30713;PMS7003;17465;47.934;33.430;2023-05-19T03:14:45;34.75;29.50;19.25
30713;PMS7003;17465;47.934;33.430;2023-05-19T03:17:15;26.50;26.50;16.25
30713;PMS7003;17465;47.934;33.430;2023-05-19T03:19:45;28.25;28.25;17.25
30713;PMS7003;17465;47.934;33.430;2023-05-19T03:22:16;31.50;29.75;19.25
30713;PMS7003;17465;47.934;33.430;2023-05-19T03:24:46;31.75;30.50;20.00
30713;PMS7003;17465;47.934;33.430;2023-05-19T03:27:28;31.50;28.75;19.00
30713;PMS7003;17465;47.934;33.430;2023-05-19T03:30:01;28.75;28.25;18.75
30713;PMS7003;17465;47.934;33.430;2023-05-19T03:32:33;30.50;29.00;18.25
30713;PMS7003;17465;47.934;33.430;2023-05-19T03:35:04;34.00;30.25;19.00
30713;PMS7003;17465;47.934;33.430;2023-05-19T03:37:37;24.25;24.00;16.75
30713;PMS7003;17465;47.934;33.430;2023-05-19T03:40:08;26.75;26.00;17.00
30713;PMS7003;17465;47.934;33.430;2023-05-19T03:42:39;29.50;25.50;16.75
30713;PMS7003;17465;47.934;33.430;2023-05-19T03:45:09;28.25;27.00;16.75
30713;PMS7003;17465;47.934;33.430;2023-05-19T03:47:40;31.00;29.50;18.50
30713;PMS7003;17465;47.934;33.430;2023-05-19T03:50:11;30.50;27.25;17.75
30713;PMS7003;17465;47.934;33.430;2023-05-19T03:52:41;30.75;29.75;18.25
30713;PMS7003;17465;47.934;33.430;2023-05-19T03:55:13;29.75;26.75;16.25
30713;PMS7003;17465;47.934;33.430;2023-05-19T03:57:47;27.75;25.50;16.75
30713;PMS7003;17465;47.934;33.430;2023-05-19T04:00:25;26.75;26.25;17.25
30713;PMS7003;17465;47.934;33.430;2023-05-19T04:02:55;26.00;24.50;16.50
30713;PMS7003;17465;47.934;33.430;2023-05-19T04:05:26;25.25;24.75;15.75
30713;PMS7003;17465;47.934;33.430;2023-05-19T04:07:56;26.00;24.50;17.00
30713;PMS7003;17465;47.934;33.430;2023-05-19T04:10:27;27.75;26.00;16.75
30713;PMS7003;17465;47.934;33.430;2023-05-19T04:12:57;30.50;28.75;18.50
30713;PMS7003;17465;47.934;33.430;2023-05-19T04:15:29;26.20;24.40;15.80
30713;PMS7003;17465;47.934;33.430;2023-05-19T04:18:03;26.75;26.00;15.00
30713;PMS7003;17465;47.934;33.430;2023-05-19T04:20:36;29.50;27.75;18.00
30713;PMS7003;17465;47.934;33.430;2023-05-19T04:23:07;30.50;30.00;17.50
30713;PMS7003;17465;47.934;33.430;2023-05-19T04:25:37;28.25;25.75;18.75
30713;PMS7003;17465;47.934;33.430;2023-05-19T04:28:08;31.25;30.25;19.25
30713;PMS7003;17465;47.934;33.430;2023-05-19T04:30:41;25.80;25.40;16.80
30713;PMS7003;17465;47.934;33.430;2023-05-19T04:33:16;29.60;26.00;16.80
30713;PMS7003;17465;47.934;33.430;2023-05-19T04:35:46;28.25;28.00;18.00
30713;PMS7003;17465;47.934;33.430;2023-05-19T04:38:17;31.50;27.75;18.75
30713;PMS7003;17465;47.934;33.430;2023-05-19T04:40:47;27.75;25.50;16.50
30713;PMS7003;17465;47.934;33.430;2023-05-19T04:43:21;26.60;25.40;17.00
30713;PMS7003;17465;47.934;33.430;2023-05-19T04:45:53;27.00;26.60;16.80
30713;PMS7003;17465;47.934;33.430;2023-05-19T04:48:24;31.80;29.00;17.20
30713;PMS7003;17465;47.934;33.430;2023-05-19T04:50:57;36.75;31.25;19.00
30713;PMS7003;17465;47.934;33.430;2023-05-19T04:53:31;36.00;31.50;19.25
30713;PMS7003;17465;47.934;33.430;2023-05-19T04:56:04;33.60;30.00;19.80
30713;PMS7003;17465;47.934;33.430;2023-05-19T04:58:39;30.50;29.00;18.75
30713;PMS7003;17465;47.934;33.430;2023-05-19T05:01:12;32.00;29.75;20.50
30713;PMS7003;17465;47.934;33.430;2023-05-19T05:03:46;33.00;31.00;19.50
30713;PMS7003;17465;47.934;33.430;2023-05-19T05:06:20;35.80;32.00;21.00
30713;PMS7003;17465;47.934;33.430;2023-05-19T05:08:51;35.40;31.60;21.00
30713;PMS7003;17465;47.934;33.430;2023-05-19T05:11:25;31.80;29.00;20.20
30713;PMS7003;17465;47.934;33.430;2023-05-19T05:13:56;27.20;27.20;18.00
30713;PMS7003;17465;47.934;33.430;2023-05-19T05:16:27;35.20;31.00;20.60
30713;PMS7003;17465;47.934;33.430;2023-05-19T05:18:58;33.20;29.80;19.60
30713;PMS7003;17465;47.934;33.430;2023-05-19T05:21:30;32.00;30.00;19.60
30713;PMS7003;17465;47.934;33.430;2023-05-19T05:24:01;28.60;26.60;19.00
30713;PMS7003;17465;47.934;33.430;2023-05-19T05:26:37;26.60;26.00;15.00
30713;PMS7003;17465;47.934;33.430;2023-05-19T05:29:20;29.40;28.00;18.80
30713;PMS7003;17465;47.934;33.430;2023-05-19T05:31:51;30.60;28.00;19.20
30713;PMS7003;17465;47.934;33.430;2023-05-19T05:34:35;33.80;30.60;20.00
30713;PMS7003;17465;47.934;33.430;2023-05-19T05:37:17;31.00;29.80;20.20
30713;PMS7003;17465;47.934;33.430;2023-05-19T05:39:57;28.60;28.00;17.40
30713;PMS7003;17465;47.934;33.430;2023-05-19T05:43:20;24.60;22.20;16.00
30713;PMS7003;17465;47.934;33.430;2023-05-19T05:45:48;24.00;22.40;15.00
30713;PMS7003;17465;47.934;33.430;2023-05-19T05:48:22;27.00;26.40;17.80
30713;PMS7003;17465;47.934;33.430;2023-05-19T05:50:53;21.80;21.80;14.40
30713;PMS7003;17465;47.934;33.430;2023-05-19T05:53:31;28.80;26.40;18.00
30713;PMS7003;17465;47.934;33.430;2023-05-19T05:56:07;22.00;21.80;13.60
30713;PMS7003;17465;47.934;33.430;2023-05-19T05:58:42;25.20;24.20;15.60
30713;PMS7003;17465;47.934;33.430;2023-05-19T06:01:18;26.20;25.00;16.60
30713;PMS7003;17465;47.934;33.430;2023-05-19T06:03:59;30.40;28.40;18.00
30713;PMS7003;17465;47.934;33.430;2023-05-19T06:06:27;24.40;24.40;15.20
30713;PMS7003;17465;47.934;33.430;2023-05-19T06:08:58;21.20;20.80;12.40
30713;PMS7003;17465;47.934;33.430;2023-05-19T06:11:31;24.80;24.80;15.00
30713;PMS7003;17465;47.934;33.430;2023-05-19T06:14:07;21.80;21.80;17.00
30713;PMS7003;17465;47.934;33.430;2023-05-19T06:16:47;21.80;21.60;15.20
30713;PMS7003;17465;47.934;33.430;2023-05-19T06:19:14;20.00;19.20;14.00
30713;PMS7003;17465;47.934;33.430;2023-05-19T06:21:52;25.60;23.80;15.80
30713;PMS7003;17465;47.934;33.430;2023-05-19T06:24:32;20.40;20.40;13.20
30713;PMS7003;17465;47.934;33.430;2023-05-19T06:27:01;21.00;20.40;14.20
30713;PMS7003;17465;47.934;33.430;2023-05-19T06:29:33;22.60;22.20;14.60
30713;PMS7003;17465;47.934;33.430;2023-05-19T06:32:04;23.60;21.80;15.20
30713;PMS7003;17465;47.934;33.430;2023-05-19T06:34:41;19.20;18.20;11.80
30713;PMS7003;17465;47.934;33.430;2023-05-19T06:37:10;22.40;22.00;13.40
30713;PMS7003;17465;47.934;33.430;2023-05-19T06:39:40;15.80;15.20;12.60
30713;PMS7003;17465;47.934;33.430;2023-05-19T06:42:11;18.00;16.00;12.20
30713;PMS7003;17465;47.934;33.430;2023-05-19T06:44:41;20.80;18.00;12.80
30713;PMS7003;17465;47.934;33.430;2023-05-19T06:47:12;16.00;15.60;12.20
30713;PMS7003;17465;47.934;33.430;2023-05-19T06:49:43;17.60;17.60;11.40
30713;PMS7003;17465;47.934;33.430;2023-05-19T06:52:15;17.20;17.20;12.80
30713;PMS7003;17465;47.934;33.430;2023-05-19T06:54:45;14.00;14.00;11.20
30713;PMS7003;17465;47.934;33.430;2023-05-19T06:57:16;19.20;19.00;12.80
30713;PMS7003;17465;47.934;33.430;2023-05-19T06:59:46;19.40;19.00;12.60
30713;PMS7003;17465;47.934;33.430;2023-05-19T07:02:17;19.20;19.20;13.60
30713;PMS7003;17465;47.934;33.430;2023-05-19T07:04:51;15.20;14.60;10.20
30713;PMS7003;17465;47.934;33.430;2023-05-19T07:07:23;15.40;15.00;11.00
30713;PMS7003;17465;47.934;33.430;2023-05-19T07:09:57;16.40;16.40;11.80
30713;PMS7003;17465;47.934;33.430;2023-05-19T07:12:32;13.40;13.40;10.00
30713;PMS7003;17465;47.934;33.430;2023-05-19T07:15:02;13.20;12.80;10.80
30713;PMS7003;17465;47.934;33.430;2023-05-19T07:17:35;14.00;14.00;10.60
30713;PMS7003;17465;47.934;33.430;2023-05-19T07:20:06;13.80;13.80;11.00
30713;PMS7003;17465;47.934;33.430;2023-05-19T07:22:42;14.00;14.00;10.20
30713;PMS7003;17465;47.934;33.430;2023-05-19T07:25:19;15.60;14.00;9.00
30713;PMS7003;17465;47.934;33.430;2023-05-19T07:27:48;15.60;14.00;10.20
30713;PMS7003;17465;47.934;33.430;2023-05-19T07:30:18;13.00;13.00;8.60
30713;PMS7003;17465;47.934;33.430;2023-05-19T07:32:55;13.80;13.60;10.60
30713;PMS7003;17465;47.934;33.430;2023-05-19T07:35:26;11.80;11.80;7.80
30713;PMS7003;17465;47.934;33.430;2023-05-19T07:38:17;13.40;13.40;10.40
30713;PMS7003;17465;47.934;33.430;2023-05-19T07:40:49;14.80;14.80;11.20
30713;PMS7003;17465;47.934;33.430;2023-05-19T07:45:56;13.00;12.00;8.20
30713;PMS7003;17465;47.934;33.430;2023-05-19T07:48:31;11.80;10.80;8.60
30713;PMS7003;17465;47.934;33.430;2023-05-19T07:51:02;9.60;9.00;6.60
30713;PMS7003;17465;47.934;33.430;2023-05-19T07:53:32;11.80;11.80;8.80
30713;PMS7003;17465;47.934;33.430;2023-05-19T07:56:09;9.20;9.20;6.20
30713;PMS7003;17465;47.934;33.430;2023-05-19T07:58:39;10.00;9.60;6.20
30713;PMS7003;17465;47.934;33.430;2023-05-19T08:01:10;10.60;10.60;6.00
30713;PMS7003;17465;47.934;33.430;2023-05-19T08:03:41;9.00;9.00;6.00
30713;PMS7003;17465;47.934;33.430;2023-05-19T08:06:11;10.20;10.20;7.40
30713;PMS7003;17465;47.934;33.430;2023-05-19T08:08:43;7.00;7.00;5.80
30713;PMS7003;17465;47.934;33.430;2023-05-19T08:11:14;7.00;7.00;4.00
30713;PMS7003;17465;47.934;33.430;2023-05-19T08:13:44;9.40;8.00;5.60
30713;PMS7003;17465;47.934;33.430;2023-05-19T08:16:15;9.20;9.00;6.00
30713;PMS7003;17465;47.934;33.430;2023-05-19T08:18:45;9.20;9.20;6.00
30713;PMS7003;17465;47.934;33.430;2023-05-19T08:21:16;10.60;10.60;6.00
30713;PMS7003;17465;47.934;33.430;2023-05-19T08:23:47;8.80;8.60;5.80
30713;PMS7003;17465;47.934;33.430;2023-05-19T08:26:17;9.00;9.00;6.00
30713;PMS7003;17465;47.934;33.430;2023-05-19T08:28:48;9.20;9.20;6.80
30713;PMS7003;17465;47.934;33.430;2023-05-19T08:31:20;11.60;9.60;6.20
30713;PMS7003;17465;47.934;33.430;2023-05-19T08:33:50;8.00;8.00;6.20
30713;PMS7003;17465;47.934;33.430;2023-05-19T08:36:20;13.00;12.20;9.20
30713;PMS7003;17465;47.934;33.430;2023-05-19T08:38:53;11.00;9.00;5.00
30713;PMS7003;17465;47.934;33.430;2023-05-19T08:41:23;7.00;7.00;4.80
30713;PMS7003;17465;47.934;33.430;2023-05-19T08:43:58;9.60;9.60;5.00
30713;PMS7003;17465;47.934;33.430;2023-05-19T08:46:33;8.60;8.60;4.20
30713;PMS7003;17465;47.934;33.430;2023-05-19T08:49:07;7.00;7.00;4.40
30713;PMS7003;17465;47.934;33.430;2023-05-19T08:51:58;8.60;7.60;5.20
30713;PMS7003;17465;47.934;33.430;2023-05-19T08:54:48;8.20;7.60;5.80
30713;PMS7003;17465;47.934;33.430;2023-05-19T08:57:19;9.00;9.00;5.60
30713;PMS7003;17465;47.934;33.430;2023-05-19T08:59:51;7.40;7.40;4.80
30713;PMS7003;17465;47.934;33.430;2023-05-19T09:02:24;9.20;8.20;6.00
30713;PMS7003;17465;47.934;33.430;2023-05-19T09:04:55;10.00;8.80;5.00
30713;PMS7003;17465;47.934;33.430;2023-05-19T09:07:27;10.00;9.80;6.20
30713;PMS7003;17465;47.934;33.430;2023-05-19T09:10:08;4.80;4.80;3.40
30713;PMS7003;17465;47.934;33.430;2023-05-19T09:12:34;8.20;6.40;5.00
30713;PMS7003;17465;47.934;33.430;2023-05-19T09:15:07;6.40;6.40;5.20
30713;PMS7003;17465;47.934;33.430;2023-05-19T09:17:39;10.80;9.80;6.20
30713;PMS7003;17465;47.934;33.430;2023-05-19T09:20:09;8.00;8.00;6.00
30713;PMS7003;17465;47.934;33.430;2023-05-19T09:22:40;7.40;6.60;4.40
30713;PMS7003;17465;47.934;33.430;2023-05-19T09:25:31;7.20;7.20;5.60
30713;PMS7003;17465;47.934;33.430;2023-05-19T09:28:02;9.40;8.80;5.60
30713;PMS7003;17465;47.934;33.430;2023-05-19T09:30:32;1.80;1.80;0.00
30713;PMS7003;17465;47.934;33.430;2023-05-19T09:33:05;8.20;8.20;5.80
30713;PMS7003;17465;47.934;33.430;2023-05-19T09:35:38;8.80;8.80;5.80
30713;PMS7003;17465;47.934;33.430;2023-05-19T09:38:09;6.40;6.40;4.80
30713;PMS7003;17465;47.934;33.430;2023-05-19T09:40:42;8.60;8.20;5.60
30713;PMS7003;17465;47.934;33.430;2023-05-19T09:43:13;11.80;11.00;6.80
30713;PMS7003;17465;47.934;33.430;2023-05-19T09:46:12;8.20;7.20;6.00
30713;PMS7003;17465;47.934;33.430;2023-05-19T09:48:29;9.20;9.20;6.20
30713;PMS7003;17465;47.934;33.430;2023-05-19T09:51:00;9.00;9.00;6.00
30713;PMS7003;17465;47.934;33.430;2023-05-19T09:53:33;7.40;7.40;5.80
30713;PMS7003;17465;47.934;33.430;2023-05-19T09:56:07;11.40;10.40;7.20
30713;PMS7003;17465;47.934;33.430;2023-05-19T09:58:40;8.60;8.60;5.60
30713;PMS7003;17465;47.934;33.430;2023-05-19T10:01:10;10.60;10.60;6.00
30713;PMS7003;17465;47.934;33.430;2023-05-19T10:03:45;10.80;10.80;6.60
30713;PMS7003;17465;47.934;33.430;2023-05-19T10:06:16;8.40;8.40;5.60
30713;PMS7003;17465;47.934;33.430;2023-05-19T10:08:50;10.60;9.40;5.80
30713;PMS7003;17465;47.934;33.430;2023-05-19T10:11:21;10.80;10.00;7.00
30713;PMS7003;17465;47.934;33.430;2023-05-19T10:13:53;10.80;10.80;6.20
30713;PMS7003;17465;47.934;33.430;2023-05-19T10:16:23;8.60;8.60;6.20
30713;PMS7003;17465;47.934;33.430;2023-05-19T10:18:58;11.20;10.60;8.00
30713;PMS7003;17465;47.934;33.430;2023-05-19T10:21:31;8.80;8.80;8.00
30713;PMS7003;17465;47.934;33.430;2023-05-19T10:24:01;8.80;8.80;5.40
30713;PMS7003;17465;47.934;33.430;2023-05-19T10:26:33;7.00;7.00;4.40
30713;PMS7003;17465;47.934;33.430;2023-05-19T10:29:04;9.60;9.20;5.20
30713;PMS7003;17465;47.934;33.430;2023-05-19T10:31:38;10.60;9.20;6.00
30713;PMS7003;17465;47.934;33.430;2023-05-19T10:37:09;9.80;9.80;6.00
30713;PMS7003;17465;47.934;33.430;2023-05-19T10:39:37;9.20;9.20;6.20
30713;PMS7003;17465;47.934;33.430;2023-05-19T10:47:36;10.60;10.60;6.20
30713;PMS7003;17465;47.934;33.430;2023-05-19T10:50:11;9.80;9.80;7.80
30713;PMS7003;17465;47.934;33.430;2023-05-19T10:52:42;10.00;10.00;7.00
30713;PMS7003;17465;47.934;33.430;2023-05-19T10:55:14;11.00;11.00;8.00
30713;PMS7003;17465;47.934;33.430;2023-05-19T10:57:58;10.80;10.60;6.00
30713;PMS7003;17465;47.934;33.430;2023-05-19T11:00:28;10.20;9.60;6.00
30713;PMS7003;17465;47.934;33.430;2023-05-19T11:03:18;8.60;8.40;7.20
30713;PMS7003;17465;47.934;33.430;2023-05-19T11:05:41;9.80;9.80;6.20
30713;PMS7003;17465;47.934;33.430;2023-05-19T11:08:11;8.00;7.60;4.80
30713;PMS7003;17465;47.934;33.430;2023-05-19T11:10:45;9.60;9.00;6.20
30713;PMS7003;17465;47.934;33.430;2023-05-19T11:13:18;9.60;8.40;5.20
30713;PMS7003;17465;47.934;33.430;2023-05-19T11:15:54;10.60;9.80;6.20
30713;PMS7003;17465;47.934;33.430;2023-05-19T11:18:25;9.40;8.40;5.40
30713;PMS7003;17465;47.934;33.430;2023-05-19T11:20:56;7.80;7.60;5.60
30713;PMS7003;17465;47.934;33.430;2023-05-19T11:23:32;8.20;8.20;5.60
30713;PMS7003;17465;47.934;33.430;2023-05-19T11:26:05;9.00;8.40;5.20
30713;PMS7003;17465;47.934;33.430;2023-05-19T11:28:36;6.60;6.40;5.00
30713;PMS7003;17465;47.934;33.430;2023-05-19T11:31:08;10.00;9.80;5.80
30713;PMS7003;17465;47.934;33.430;2023-05-19T11:33:40;9.60;8.00;6.00
30713;PMS7003;17465;47.934;33.430;2023-05-19T11:36:11;7.80;7.40;5.00
30713;PMS7003;17465;47.934;33.430;2023-05-19T11:38:49;8.00;8.00;4.80
30713;PMS7003;17465;47.934;33.430;2023-05-19T11:41:20;9.80;9.80;6.60
30713;PMS7003;17465;47.934;33.430;2023-05-19T11:43:50;8.00;8.00;5.40
30713;PMS7003;17465;47.934;33.430;2023-05-19T11:46:32;7.20;7.20;4.80
30713;PMS7003;17465;47.934;33.430;2023-05-19T11:49:04;7.20;7.20;5.60
30713;PMS7003;17465;47.934;33.430;2023-05-19T11:51:55;6.60;6.60;4.60
30713;PMS7003;17465;47.934;33.430;2023-05-19T11:54:30;7.20;7.00;4.80
30713;PMS7003;17465;47.934;33.430;2023-05-19T11:57:11;7.00;7.00;5.00
30713;PMS7003;17465;47.934;33.430;2023-05-19T11:59:42;5.40;5.40;4.60
30713;PMS7003;17465;47.934;33.430;2023-05-19T12:05:02;5.80;5.40;4.00
30713;PMS7003;17465;47.934;33.430;2023-05-19T12:07:38;4.40;3.20;2.20
30713;PMS7003;17465;47.934;33.430;2023-05-19T12:10:26;6.20;6.00;4.00
30713;PMS7003;17465;47.934;33.430;2023-05-19T12:12:55;6.00;6.00;4.60
30713;PMS7003;17465;47.934;33.430;2023-05-19T12:15:30;6.60;6.40;6.00
30713;PMS7003;17465;47.934;33.430;2023-05-19T12:18:02;9.00;8.00;4.40
30713;PMS7003;17465;47.934;33.430;2023-05-19T12:20:33;6.40;6.40;4.80
30713;PMS7003;17465;47.934;33.430;2023-05-19T12:23:09;4.00;4.00;2.20
30713;PMS7003;17465;47.934;33.430;2023-05-19T12:25:40;7.60;7.60;5.80
30713;PMS7003;17465;47.934;33.430;2023-05-19T12:28:12;15.60;10.80;6.00
30713;PMS7003;17465;47.934;33.430;2023-05-19T12:30:49;5.40;5.40;2.00
30713;PMS7003;17465;47.934;33.430;2023-05-19T12:33:17;10.60;10.00;6.00
30713;PMS7003;17465;47.934;33.430;2023-05-19T12:35:52;12.20;12.20;6.60
30713;PMS7003;17465;47.934;33.430;2023-05-19T12:38:24;13.60;11.20;6.40
30713;PMS7003;17465;47.934;33.430;2023-05-19T12:41:04;9.80;9.40;6.20
30713;PMS7003;17465;47.934;33.430;2023-05-19T12:43:35;11.00;9.80;6.60
30713;PMS7003;17465;47.934;33.430;2023-05-19T12:46:10;11.60;8.80;6.00
30713;PMS7003;17465;47.934;33.430;2023-05-19T12:48:47;12.00;11.80;7.40
30713;PMS7003;17465;47.934;33.430;2023-05-19T12:51:24;15.20;12.80;10.00
30713;PMS7003;17465;47.934;33.430;2023-05-19T12:53:50;13.60;13.60;9.00
30713;PMS7003;17465;47.934;33.430;2023-05-19T12:56:20;17.80;16.20;10.00
30713;PMS7003;17465;47.934;33.430;2023-05-19T12:58:53;11.40;10.40;8.00
30713;PMS7003;17465;47.934;33.430;2023-05-19T13:01:24;9.20;9.20;7.00
30713;PMS7003;17465;47.934;33.430;2023-05-19T13:04:02;10.40;10.40;7.80
30713;PMS7003;17465;47.934;33.430;2023-05-19T13:06:34;9.40;9.40;7.40
30713;PMS7003;17465;47.934;33.430;2023-05-19T13:09:09;8.00;8.00;3.80
30713;PMS7003;17465;47.934;33.430;2023-05-19T13:11:43;11.40;10.40;8.00
30713;PMS7003;17465;47.934;33.430;2023-05-19T13:14:20;12.00;12.00;8.20
30713;PMS7003;17465;47.934;33.430;2023-05-19T13:16:47;13.80;13.00;9.40
30713;PMS7003;17465;47.934;33.430;2023-05-19T13:19:18;13.00;13.00;9.00
30713;PMS7003;17465;47.934;33.430;2023-05-19T13:21:50;12.00;11.40;8.20
30713;PMS7003;17465;47.934;33.430;2023-05-19T13:24:20;13.00;13.00;9.20
30713;PMS7003;17465;47.934;33.430;2023-05-19T13:27:08;12.40;11.00;8.20
30713;PMS7003;17465;47.934;33.430;2023-05-19T13:29:25;12.20;11.40;7.80
30713;PMS7003;17465;47.934;33.430;2023-05-19T13:31:56;14.80;14.80;10.00
30713;PMS7003;17465;47.934;33.430;2023-05-19T13:34:29;15.60;14.00;8.80
30713;PMS7003;17465;47.934;33.430;2023-05-19T13:37:00;14.20;14.20;10.20
30713;PMS7003;17465;47.934;33.430;2023-05-19T13:39:35;12.20;11.40;10.00
30713;PMS7003;17465;47.934;33.430;2023-05-19T13:42:06;14.80;14.00;10.80
30713;PMS7003;17465;47.934;33.430;2023-05-19T13:44:43;16.20;16.20;12.20
30713;PMS7003;17465;47.934;33.430;2023-05-19T13:47:14;12.20;12.20;10.60
30713;PMS7003;17465;47.934;33.430;2023-05-19T13:49:48;14.40;14.40;9.40
30713;PMS7003;17465;47.934;33.430;2023-05-19T13:52:17;13.20;13.20;9.20
30713;PMS7003;17465;47.934;33.430;2023-05-19T13:54:51;12.20;11.60;8.20
30713;PMS7003;17465;47.934;33.430;2023-05-19T13:57:22;12.20;11.20;9.00
30713;PMS7003;17465;47.934;33.430;2023-05-19T13:59:54;11.20;11.20;8.80
30713;PMS7003;17465;47.934;33.430;2023-05-19T14:02:31;14.00;13.20;9.60
30713;PMS7003;17465;47.934;33.430;2023-05-19T14:05:05;12.40;12.40;8.80
30713;PMS7003;17465;47.934;33.430;2023-05-19T14:07:41;15.00;13.20;9.20
30713;PMS7003;17465;47.934;33.430;2023-05-19T14:10:08;10.80;10.80;7.80
30713;PMS7003;17465;47.934;33.430;2023-05-19T14:12:42;8.60;8.60;8.00
30713;PMS7003;17465;47.934;33.430;2023-05-19T14:15:25;13.80;13.20;9.00
30713;PMS7003;17465;47.934;33.430;2023-05-19T14:17:59;12.40;11.60;8.00
30713;PMS7003;17465;47.934;33.430;2023-05-19T14:20:34;7.60;7.60;3.60
30713;PMS7003;17465;47.934;33.430;2023-05-19T14:23:07;12.00;10.80;7.40
30713;PMS7003;17465;47.934;33.430;2023-05-19T14:25:38;11.60;11.60;8.40
30713;PMS7003;17465;47.934;33.430;2023-05-19T14:28:08;15.20;12.60;8.60
30713;PMS7003;17465;47.934;33.430;2023-05-19T14:30:42;14.60;14.20;9.80
30713;PMS7003;17465;47.934;33.430;2023-05-19T14:33:31;14.20;13.00;8.80
30713;PMS7003;17465;47.934;33.430;2023-05-19T14:36:04;12.80;11.20;8.20
30713;PMS7003;17465;47.934;33.430;2023-05-19T14:38:35;15.40;13.20;9.00
30713;PMS7003;17465;47.934;33.430;2023-05-19T14:41:05;14.80;14.40;9.00
30713;PMS7003;17465;47.934;33.430;2023-05-19T14:43:46;12.00;11.60;9.20
30713;PMS7003;17465;47.934;33.430;2023-05-19T14:46:17;13.40;13.20;9.80
30713;PMS7003;17465;47.934;33.430;2023-05-19T14:48:52;10.60;10.20;9.00
30713;PMS7003;17465;47.934;33.430;2023-05-19T14:51:31;15.00;14.60;10.00
30713;PMS7003;17465;47.934;33.430;2023-05-19T14:54:01;27.20;25.40;17.40